createdAt,value
2019-05-07T00:01:54.795Z,102141.66
2019-05-07T00:06:55.112Z,102139.00
2019-05-07T00:11:57.050Z,102138.35
2019-05-07T00:17:04.570Z,102145.23
2019-05-07T00:22:09.791Z,102137.15
2019-05-07T00:27:13.123Z,102121.52
2019-05-07T00:32:15.056Z,102124.42
2019-05-07T00:37:36.518Z,102126.79
2019-05-07T00:42:56.980Z,102123.46
2019-05-07T00:47:58.892Z,102118.73
2019-05-07T00:53:02.119Z,102126.86
2019-05-07T00:58:04.117Z,102123.38
2019-05-07T01:03:05.943Z,102129.00
2019-05-07T01:08:07.872Z,102129.72
2019-05-07T01:13:12.024Z,102125.23
2019-05-07T01:18:13.600Z,102122.02
2019-05-07T01:23:15.533Z,102126.01
2019-05-07T01:28:17.466Z,102121.02
2019-05-07T01:33:27.332Z,102124.89
2019-05-07T01:38:29.252Z,102115.48
2019-05-07T01:43:32.130Z,102128.40
2019-05-07T01:48:34.269Z,102115.05
2019-05-07T01:53:36.153Z,102115.66
2019-05-07T01:58:38.073Z,102110.26
2019-05-07T02:04:12.762Z,102105.79
2019-05-07T02:09:27.276Z,102109.58
2019-05-07T02:14:29.335Z,102106.50
2019-05-07T02:19:32.910Z,102107.72
2019-05-07T02:24:35.163Z,102113.77
2019-05-07T02:29:38.232Z,102101.30
2019-05-07T02:34:44.257Z,102104.97
2019-05-07T02:39:53.252Z,102103.32
2019-05-07T02:45:17.526Z,102095.88
2019-05-07T02:50:34.029Z,102091.84
2019-05-07T02:55:43.544Z,102088.80
2019-05-07T03:00:48.305Z,102087.94
2019-05-07T03:05:53.768Z,102091.94
2019-05-07T03:10:58.035Z,102092.69
2019-05-07T03:16:03.524Z,102084.91
2019-05-07T03:21:24.083Z,102086.81
2019-05-07T03:26:29.070Z,102087.98
2019-05-07T03:31:49.345Z,102082.28
2019-05-07T03:36:56.439Z,102085.34
2019-05-07T03:41:56.678Z,102085.14
2019-05-07T03:47:15.106Z,102076.08
2019-05-07T03:52:17.246Z,102068.55
2019-05-07T03:57:19.193Z,102078.36
2019-05-07T04:02:23.930Z,102073.66
2019-05-07T04:07:24.936Z,102070.41
2019-05-07T04:12:29.897Z,102071.41
2019-05-07T04:17:33.914Z,102059.87
2019-05-07T04:22:36.060Z,102059.88
2019-05-07T04:27:47.192Z,102059.70
2019-05-07T04:32:54.141Z,102058.55
2019-05-07T04:38:01.578Z,102058.36
2019-05-07T04:43:02.718Z,102052.88
2019-05-07T04:48:06.578Z,102050.94
2019-05-07T04:53:08.626Z,102047.30
2019-05-07T04:58:13.743Z,102043.09
2019-05-07T05:03:19.943Z,102040.30
2019-05-07T05:08:25.679Z,102038.17
2019-05-07T05:13:27.788Z,102046.32
2019-05-07T05:18:29.682Z,102043.73
2019-05-07T05:24:08.839Z,102045.53
2019-05-07T05:29:19.463Z,102050.50
2019-05-07T05:34:22.877Z,102043.55
2019-05-07T05:39:24.777Z,102041.12
2019-05-07T05:44:32.046Z,102039.21
2019-05-07T05:49:34.242Z,102041.19
2019-05-07T05:54:56.552Z,102046.32
2019-05-07T06:00:16.508Z,102042.42
2019-05-07T06:05:38.302Z,102040.33
2019-05-07T06:10:51.880Z,102031.42
2019-05-07T06:16:03.151Z,102028.12
2019-05-07T06:21:16.163Z,102029.92
2019-05-07T06:26:18.197Z,102034.13
2019-05-07T06:31:23.069Z,102031.31
2019-05-07T06:36:33.568Z,102034.77
2019-05-07T06:42:03.969Z,102025.58
2019-05-07T06:47:05.941Z,102038.66
2019-05-07T06:52:08.063Z,102038.66
2019-05-07T06:57:09.996Z,102028.23
2019-05-07T07:02:32.851Z,102036.47
2019-05-07T07:07:52.558Z,102027.02
2019-05-07T07:12:54.530Z,102027.02
2019-05-07T07:17:56.451Z,102032.49
2019-05-07T07:22:58.406Z,102035.23
2019-05-07T07:28:02.837Z,102033.08
2019-05-07T07:33:07.870Z,102029.38
2019-05-07T07:38:27.906Z,102023.29
2019-05-07T07:43:29.953Z,102024.27
2019-05-07T07:48:32.245Z,102020.17
2019-05-07T07:53:35.567Z,102015.90
2019-05-07T07:59:12.723Z,102007.22
2019-05-07T08:04:19.133Z,102011.84
2019-05-07T08:09:24.008Z,102009.87
2019-05-07T08:14:25.660Z,102011.88
2019-05-07T08:19:27.607Z,102003.95
2019-05-07T08:24:34.848Z,102004.70
2019-05-07T08:29:37.063Z,102001.91
2019-05-07T08:34:43.830Z,101997.94
2019-05-07T08:39:45.755Z,101996.01
2019-05-07T08:45:02.898Z,101991.42
2019-05-07T08:50:05.127Z,101991.33
2019-05-07T08:55:07.089Z,101986.50
2019-05-07T09:00:09.600Z,101968.39
2019-05-07T09:05:13.055Z,101965.38
2019-05-07T09:10:14.938Z,101966.06
2019-05-07T09:15:16.846Z,101955.68
2019-05-07T09:20:18.745Z,101955.06
2019-05-07T09:25:22.313Z,101947.33
2019-05-07T09:30:44.195Z,101935.04
2019-05-07T09:35:52.862Z,101931.83
2019-05-07T09:40:56.983Z,101930.71
2019-05-07T09:46:02.672Z,101921.14
2019-05-07T09:51:06.640Z,101915.92
2019-05-07T09:56:08.687Z,101925.69
2019-05-07T10:01:12.545Z,101909.55
2019-05-07T10:06:18.791Z,101920.14
2019-05-07T10:11:39.467Z,101914.72
2019-05-07T10:17:06.617Z,101903.66
2019-05-07T10:22:12.593Z,101901.05
2019-05-07T10:27:15.608Z,101888.66
2019-05-07T10:32:17.510Z,101893.91
2019-05-07T10:37:19.804Z,101886.72
2019-05-07T10:42:22.728Z,101869.76
2019-05-07T10:47:38.142Z,101872.76
2019-05-07T10:52:42.479Z,101871.95
2019-05-07T10:57:44.657Z,101867.45
2019-05-07T11:02:46.905Z,101855.62
2019-05-07T11:07:48.936Z,101856.48
2019-05-07T11:12:51.714Z,101844.99
2019-05-07T11:18:06.354Z,101839.41
2019-05-07T11:23:08.696Z,101832.34
2019-05-07T11:28:12.462Z,101823.30
2019-05-07T11:33:16.300Z,101827.20
2019-05-07T11:38:21.553Z,101822.75
2019-05-07T11:43:44.574Z,101819.23
2019-05-07T11:48:54.696Z,101813.73
2019-05-07T11:54:09.721Z,101810.92
2019-05-07T11:59:13.476Z,101800.39
2019-05-07T12:04:18.408Z,101797.06
2019-05-07T12:09:22.456Z,101798.11
2019-05-07T12:14:30.923Z,101796.12
2019-05-07T12:19:32.924Z,101790.59
2019-05-07T12:24:34.743Z,101784.62
2019-05-07T12:29:36.640Z,101780.31
2019-05-07T12:34:45.942Z,101780.55
2019-05-07T12:39:47.856Z,101775.95
2019-05-07T12:44:51.750Z,101769.66
2019-05-07T12:49:53.783Z,101760.31
2019-05-07T12:55:03.332Z,101766.22
2019-05-07T13:00:24.408Z,101765.69
2019-05-07T13:05:26.713Z,101767.16
2019-05-07T13:10:32.652Z,101766.74
2019-05-07T13:15:34.588Z,101768.27
2019-05-07T13:20:36.489Z,101755.77
2019-05-07T13:25:38.450Z,101755.48
2019-05-07T13:30:43.904Z,101757.11
2019-05-07T13:35:46.206Z,101746.06
2019-05-07T13:41:02.189Z,101746.82
2019-05-07T13:46:12.214Z,101737.36
2019-05-07T13:51:16.510Z,101735.97
2019-05-07T13:56:22.473Z,101723.12
2019-05-07T14:01:50.257Z,101716.53
2019-05-07T14:06:52.992Z,101708.82
2019-05-07T14:11:57.570Z,101703.19
2019-05-07T14:16:59.491Z,101688.88
2019-05-07T14:22:13.912Z,101682.13
2019-05-07T14:27:05.240Z,101683.42
2019-05-07T14:32:32.699Z,101682.95
2019-05-07T14:37:41.829Z,101685.08
2019-05-07T14:42:49.264Z,101676.27
2019-05-07T14:47:52.210Z,101680.66
2019-05-07T14:52:55.199Z,101677.43
2019-05-07T14:57:59.282Z,101663.43
2019-05-07T15:03:01.927Z,101655.09
2019-05-07T15:08:10.604Z,101649.86
2019-05-07T15:13:12.576Z,101647.78
2019-05-07T15:18:22.764Z,101643.05
2019-05-07T15:23:31.444Z,101640.80
2019-05-07T15:28:34.697Z,101638.72
2019-05-07T15:33:36.691Z,101632.80
2019-05-07T15:38:42.878Z,101622.63
2019-05-07T15:43:46.948Z,101624.34
2019-05-07T15:48:48.954Z,101612.74
2019-05-07T15:53:55.107Z,101608.70
2019-05-07T15:58:59.067Z,101604.86
2019-05-07T16:04:02.770Z,101592.09
2019-05-07T16:09:08.039Z,101584.98
2019-05-07T16:14:32.069Z,101584.64
2019-05-07T16:19:34.146Z,101579.31
2019-05-07T16:24:36.155Z,101571.92
2019-05-07T16:29:42.036Z,101569.73
2019-05-07T16:34:44.135Z,101559.31
2019-05-07T16:39:45.935Z,101566.32
2019-05-07T16:44:48.074Z,101559.30
2019-05-07T16:49:52.574Z,101556.63
2019-05-07T16:54:54.773Z,101546.94
2019-05-07T16:59:58.481Z,101546.13
2019-05-07T17:05:12.576Z,101538.78
2019-05-07T17:10:14.666Z,101530.80
2019-05-07T17:15:17.136Z,101530.66
2019-05-07T17:20:19.075Z,101529.23
2019-05-07T17:25:36.398Z,101525.97
2019-05-07T17:30:38.320Z,101522.22
2019-05-07T17:35:42.323Z,101508.70
2019-05-07T17:40:44.392Z,101513.17
2019-05-07T17:45:48.369Z,101514.62
2019-05-07T17:51:17.201Z,101510.36
2019-05-07T17:56:19.513Z,101499.66
2019-05-07T18:01:28.451Z,101497.44
2019-05-07T18:06:32.148Z,101497.72
2019-05-07T18:11:34.350Z,101496.66
2019-05-07T18:17:02.163Z,101486.66
2019-05-07T18:22:07.068Z,101484.56
2019-05-07T18:27:12.668Z,101474.77
2019-05-07T18:32:14.413Z,101472.39
2019-05-07T18:37:19.292Z,101470.84
2019-05-07T18:42:23.407Z,101469.17
2019-05-07T18:47:26.921Z,101465.06
2019-05-07T18:52:29.142Z,101464.77
2019-05-07T18:57:32.800Z,101473.53
2019-05-07T19:02:35.208Z,101468.66
2019-05-07T19:07:41.694Z,101460.54
2019-05-07T19:12:44.561Z,101459.55
2019-05-07T19:17:48.108Z,101463.47
2019-05-07T19:22:51.850Z,101460.48
2019-05-07T19:27:56.390Z,101465.16
2019-05-07T19:32:58.467Z,101473.53
2019-05-07T19:38:02.924Z,101469.91
2019-05-07T19:43:04.980Z,101463.64
2019-05-07T19:48:09.038Z,101463.64
2019-05-07T19:53:12.488Z,101458.16
2019-05-07T19:58:15.941Z,101463.09
2019-05-07T20:03:19.346Z,101458.45
2019-05-07T20:08:21.281Z,101437.48
2019-05-07T20:13:23.547Z,101437.48
2019-05-07T20:18:25.496Z,101420.12
2019-05-07T20:23:27.573Z,101409.31
2019-05-07T20:28:32.613Z,101403.24
2019-05-07T20:33:36.349Z,101396.67
2019-05-07T20:38:38.308Z,101397.92
2019-05-07T20:43:42.679Z,101393.34
2019-05-07T20:48:44.159Z,101379.57
2019-05-07T20:54:17.712Z,101379.57
2019-05-07T20:59:24.312Z,101384.27
2019-05-07T21:04:32.818Z,101371.65
2019-05-07T21:09:35.372Z,101371.65
2019-05-07T21:14:37.409Z,101373.77
2019-05-07T21:19:42.451Z,101363.66
2019-05-07T21:24:47.036Z,101355.20
2019-05-07T21:29:52.739Z,101347.03
2019-05-07T21:34:56.747Z,101342.37
2019-05-07T21:39:58.672Z,101332.13
2019-05-07T21:45:03.002Z,101332.13
2019-05-07T21:50:09.763Z,101335.53
2019-05-07T21:55:38.161Z,101316.06
2019-05-07T22:00:54.710Z,101300.27
2019-05-07T22:05:56.802Z,101302.05
2019-05-07T22:10:59.038Z,101286.02
2019-05-07T22:16:02.568Z,101279.86
2019-05-07T22:21:04.841Z,101279.86
2019-05-07T22:26:20.156Z,101281.73
2019-05-07T22:31:35.062Z,101272.16
2019-05-07T22:36:37.252Z,101270.25
2019-05-07T22:41:39.268Z,101248.94
2019-05-07T22:46:42.719Z,101246.55
2019-05-07T22:51:44.733Z,101236.19
2019-05-07T22:57:16.798Z,101223.58
2019-05-07T23:02:18.627Z,101225.59
2019-05-07T23:07:22.766Z,101213.20
2019-05-07T23:12:24.703Z,101204.84
2019-05-07T23:17:26.566Z,101202.60
2019-05-07T23:22:29.628Z,101193.68
2019-05-07T23:27:33.433Z,101186.94
2019-05-07T23:32:35.557Z,101174.70
2019-05-07T23:37:37.496Z,101173.91
2019-05-07T23:42:42.403Z,101175.33
2019-05-07T23:47:46.087Z,101167.67
2019-05-07T23:52:48.125Z,101167.67
2019-05-07T23:57:52.385Z,101169.00
